createdAt,value
2016-12-29T00:00:19.360Z,0
2016-12-29T00:01:19.473Z,0
2016-12-29T00:02:19.237Z,0
2016-12-29T00:03:19.472Z,0
2016-12-29T00:04:19.425Z,0
2016-12-29T00:05:19.577Z,0
2016-12-29T00:06:19.250Z,0
2016-12-29T00:07:19.250Z,0
2016-12-29T00:08:19.366Z,0
2016-12-29T00:09:19.230Z,0
2016-12-29T00:10:19.207Z,0
2016-12-29T00:11:19.228Z,0
2016-12-29T00:12:19.293Z,0
2016-12-29T00:13:19.213Z,0
2016-12-29T00:14:19.219Z,0
2016-12-29T00:15:19.207Z,0
2016-12-29T00:16:19.203Z,0
2016-12-29T00:17:19.251Z,0
2016-12-29T00:18:19.285Z,0
2016-12-29T00:19:19.206Z,0
2016-12-29T00:20:19.212Z,0
2016-12-29T00:21:19.203Z,0
2016-12-29T00:22:19.211Z,0
2016-12-29T00:23:19.276Z,0
2016-12-29T00:24:19.209Z,0
2016-12-29T00:25:19.214Z,0
2016-12-29T00:26:19.221Z,0
2016-12-29T00:27:19.251Z,0
2016-12-29T00:28:19.293Z,0
2016-12-29T00:29:19.247Z,0
2016-12-29T00:30:19.259Z,0
2016-12-29T00:31:19.266Z,0
2016-12-29T00:32:19.262Z,0
2016-12-29T00:33:20.732Z,0
2016-12-29T00:34:19.272Z,0
2016-12-29T00:35:19.251Z,0
2016-12-29T00:36:19.279Z,0
2016-12-29T00:37:19.284Z,0
2016-12-29T00:38:20.198Z,0
2016-12-29T00:39:19.334Z,0
2016-12-29T00:40:19.217Z,0
2016-12-29T00:41:19.227Z,0
2016-12-29T00:42:19.237Z,0
2016-12-29T00:43:19.233Z,0
2016-12-29T00:44:19.232Z,0
2016-12-29T00:45:19.211Z,0
2016-12-29T00:46:19.229Z,0
2016-12-29T00:47:19.223Z,0
2016-12-29T00:48:19.252Z,0
2016-12-29T00:49:19.390Z,0
2016-12-29T00:50:19.341Z,0
2016-12-29T00:51:19.297Z,0
2016-12-29T00:52:19.263Z,0
2016-12-29T00:53:19.440Z,0
2016-12-29T00:54:19.245Z,0
2016-12-29T00:55:19.264Z,0
2016-12-29T00:56:19.885Z,0
2016-12-29T00:57:19.291Z,0
2016-12-29T00:58:19.959Z,0
2016-12-29T00:59:19.252Z,0
2016-12-29T01:00:19.489Z,0
2016-12-29T01:01:19.256Z,0
2016-12-29T01:02:19.312Z,0
2016-12-29T01:03:19.702Z,0
2016-12-29T01:04:19.277Z,0
2016-12-29T01:05:19.269Z,0
2016-12-29T01:06:19.377Z,0
2016-12-29T01:07:19.265Z,0
2016-12-29T01:08:19.463Z,0
2016-12-29T01:09:19.252Z,0
2016-12-29T01:10:19.232Z,0
2016-12-29T01:11:19.242Z,0
2016-12-29T01:12:19.260Z,0
2016-12-29T01:13:19.267Z,0
2016-12-29T01:14:19.227Z,0
2016-12-29T01:15:19.236Z,0
2016-12-29T01:16:19.241Z,0
2016-12-29T01:17:19.236Z,0
2016-12-29T01:18:19.278Z,0
2016-12-29T01:19:19.263Z,0
2016-12-29T01:20:19.720Z,0
2016-12-29T01:21:19.274Z,0
2016-12-29T01:22:19.263Z,0
2016-12-29T01:23:19.611Z,0
2016-12-29T01:24:19.626Z,0
2016-12-29T01:25:19.328Z,0
2016-12-29T01:26:19.258Z,0
2016-12-29T01:27:19.303Z,0
2016-12-29T01:28:19.492Z,0
2016-12-29T01:29:19.289Z,0
2016-12-29T01:30:19.455Z,0
2016-12-29T01:31:19.657Z,0
2016-12-29T01:32:19.303Z,0
2016-12-29T01:33:19.391Z,0
2016-12-29T01:34:19.340Z,0
2016-12-29T01:35:19.345Z,0
2016-12-29T01:36:19.345Z,0
2016-12-29T01:37:19.308Z,0
2016-12-29T01:38:19.328Z,0
2016-12-29T01:39:19.351Z,0
2016-12-29T01:40:19.299Z,0
2016-12-29T01:41:19.366Z,0
2016-12-29T01:42:19.912Z,0
2016-12-29T01:43:19.355Z,0
2016-12-29T01:44:19.327Z,0
2016-12-29T01:45:19.377Z,0
2016-12-29T01:46:19.339Z,0
2016-12-29T01:47:19.318Z,0
2016-12-29T01:48:19.306Z,0
2016-12-29T01:49:19.282Z,0
2016-12-29T01:50:19.273Z,0
2016-12-29T01:51:19.251Z,0
2016-12-29T01:52:19.273Z,0
2016-12-29T01:53:19.295Z,0
2016-12-29T01:54:19.272Z,0
2016-12-29T01:55:19.278Z,0
2016-12-29T01:56:19.284Z,0
2016-12-29T01:57:19.277Z,0
2016-12-29T01:58:19.307Z,0
2016-12-29T01:59:19.348Z,0
2016-12-29T02:00:19.292Z,0
2016-12-29T02:01:19.282Z,0
2016-12-29T02:02:19.273Z,0
2016-12-29T02:03:19.279Z,0
2016-12-29T02:04:19.287Z,0
2016-12-29T02:05:19.279Z,0
2016-12-29T02:06:19.288Z,0
2016-12-29T02:07:19.281Z,0
2016-12-29T02:08:19.330Z,0
2016-12-29T02:09:19.277Z,0
2016-12-29T02:10:19.310Z,0
2016-12-29T02:11:19.337Z,0
2016-12-29T02:12:19.324Z,0
2016-12-29T02:13:19.323Z,0
2016-12-29T02:14:19.283Z,0
2016-12-29T02:15:19.300Z,0
2016-12-29T02:16:19.266Z,0
2016-12-29T02:17:19.288Z,0
2016-12-29T02:18:19.310Z,0
2016-12-29T02:19:19.278Z,0
2016-12-29T02:20:19.291Z,0
2016-12-29T02:21:19.293Z,0
2016-12-29T02:22:19.352Z,0
2016-12-29T02:23:19.318Z,0
2016-12-29T02:24:19.343Z,0
2016-12-29T02:25:19.298Z,0
2016-12-29T02:26:19.312Z,0
2016-12-29T02:27:19.289Z,0
2016-12-29T02:28:19.299Z,0
2016-12-29T02:29:19.279Z,0
2016-12-29T02:30:19.296Z,0
2016-12-29T02:31:19.303Z,0
2016-12-29T02:32:19.310Z,0
2016-12-29T02:33:19.333Z,0
2016-12-29T02:34:19.326Z,0
2016-12-29T02:35:19.325Z,0
2016-12-29T02:36:19.297Z,0
2016-12-29T02:37:19.337Z,0
2016-12-29T02:38:19.521Z,0
2016-12-29T02:39:19.313Z,0
2016-12-29T02:40:19.355Z,0
2016-12-29T02:41:19.305Z,0
2016-12-29T02:42:19.321Z,0
2016-12-29T02:43:19.328Z,0
2016-12-29T02:44:19.314Z,0
2016-12-29T02:45:19.320Z,0
2016-12-29T02:46:19.311Z,0
2016-12-29T02:47:19.304Z,0
2016-12-29T02:48:19.334Z,0
2016-12-29T02:49:19.318Z,0
2016-12-29T02:50:19.319Z,0
2016-12-29T02:51:19.316Z,0
2016-12-29T02:52:19.307Z,0
2016-12-29T02:53:19.426Z,0
2016-12-29T02:54:19.386Z,0
2016-12-29T02:55:19.320Z,0
2016-12-29T02:56:19.371Z,0
2016-12-29T02:57:19.302Z,0
2016-12-29T02:58:19.325Z,0
2016-12-29T02:59:19.300Z,0
2016-12-29T03:00:19.312Z,0
2016-12-29T03:01:19.319Z,0
2016-12-29T03:02:19.325Z,0
2016-12-29T03:03:19.358Z,0
2016-12-29T03:04:19.351Z,0
2016-12-29T03:05:19.318Z,0
2016-12-29T03:06:19.324Z,0
2016-12-29T03:07:19.303Z,0
2016-12-29T03:08:19.352Z,0
2016-12-29T03:09:19.345Z,0
2016-12-29T03:10:19.307Z,0
2016-12-29T03:11:19.344Z,0
2016-12-29T03:12:19.321Z,0
2016-12-29T03:13:19.358Z,0
2016-12-29T03:14:19.350Z,0
2016-12-29T03:15:19.387Z,0
2016-12-29T03:16:19.393Z,0
2016-12-29T03:17:19.353Z,0
2016-12-29T03:18:19.390Z,0
2016-12-29T03:19:19.382Z,0
2016-12-29T03:20:19.339Z,0
2016-12-29T03:21:19.339Z,0
2016-12-29T03:22:19.320Z,0
2016-12-29T03:23:19.352Z,0
2016-12-29T03:24:19.329Z,0
2016-12-29T03:25:19.317Z,0
2016-12-29T03:26:19.314Z,0
2016-12-29T03:27:19.331Z,0
2016-12-29T03:28:19.368Z,0
2016-12-29T03:29:19.316Z,0
2016-12-29T03:30:19.337Z,0
2016-12-29T03:31:19.345Z,0
2016-12-29T03:32:19.336Z,0
2016-12-29T03:33:19.372Z,0
2016-12-29T03:34:19.337Z,0
2016-12-29T03:35:19.369Z,0
2016-12-29T03:36:19.369Z,0
2016-12-29T03:37:19.369Z,0
2016-12-29T03:38:19.381Z,0
2016-12-29T03:39:19.329Z,0
2016-12-29T03:40:19.335Z,0
2016-12-29T03:41:19.327Z,0
2016-12-29T03:42:19.332Z,0
2016-12-29T03:43:19.354Z,0
2016-12-29T03:44:19.363Z,0
2016-12-29T03:45:19.347Z,0
2016-12-29T03:46:19.372Z,0
2016-12-29T03:47:19.364Z,0
2016-12-29T03:48:19.358Z,0
2016-12-29T03:49:19.414Z,0
2016-12-29T03:50:19.373Z,0
2016-12-29T03:51:19.372Z,0
2016-12-29T03:52:19.358Z,0
2016-12-29T03:53:19.386Z,0
2016-12-29T03:54:19.372Z,0
2016-12-29T03:55:19.399Z,0
2016-12-29T03:56:19.379Z,0
2016-12-29T03:57:19.422Z,0
2016-12-29T03:58:19.398Z,0
2016-12-29T03:59:19.415Z,0
2016-12-29T04:00:19.386Z,0
2016-12-29T04:01:19.481Z,0
2016-12-29T04:02:19.371Z,0
2016-12-29T04:03:19.364Z,0
2016-12-29T04:04:19.355Z,0
2016-12-29T04:05:19.334Z,0
2016-12-29T04:06:19.386Z,0
2016-12-29T04:07:19.348Z,0
2016-12-29T04:08:19.346Z,0
2016-12-29T04:09:19.375Z,0
2016-12-29T04:10:19.369Z,0
2016-12-29T04:11:19.345Z,0
2016-12-29T04:12:19.357Z,0
2016-12-29T04:13:19.399Z,0
2016-12-29T04:14:19.354Z,0
2016-12-29T04:15:19.373Z,0
2016-12-29T04:16:19.380Z,0
2016-12-29T04:17:19.375Z,0
2016-12-29T04:18:19.378Z,0
2016-12-29T04:19:19.358Z,0
2016-12-29T04:20:19.367Z,0
2016-12-29T04:21:19.369Z,0
2016-12-29T04:22:19.359Z,0
2016-12-29T04:23:19.394Z,0
2016-12-29T04:24:19.371Z,0
2016-12-29T04:25:19.365Z,0
2016-12-29T04:26:19.384Z,0
2016-12-29T04:27:19.407Z,0
2016-12-29T04:28:19.388Z,0
2016-12-29T04:29:19.433Z,0
2016-12-29T04:30:19.369Z,0
2016-12-29T04:31:19.389Z,0
2016-12-29T04:32:19.382Z,0
2016-12-29T04:33:19.416Z,0
2016-12-29T04:34:19.361Z,0
2016-12-29T04:35:19.419Z,0
2016-12-29T04:36:19.383Z,0
2016-12-29T04:37:19.372Z,0
2016-12-29T04:38:19.378Z,0
2016-12-29T04:39:19.400Z,0
2016-12-29T04:40:19.389Z,0
2016-12-29T04:41:19.417Z,0
2016-12-29T04:42:19.389Z,0
2016-12-29T04:43:19.411Z,0
2016-12-29T04:44:19.395Z,0
2016-12-29T04:45:19.395Z,0
2016-12-29T04:46:19.416Z,0
2016-12-29T04:47:19.370Z,0
2016-12-29T04:48:19.415Z,0
2016-12-29T04:49:19.393Z,0
2016-12-29T04:50:19.394Z,0
2016-12-29T04:51:19.378Z,0
2016-12-29T04:52:19.410Z,0
2016-12-29T04:53:19.421Z,0
2016-12-29T04:54:19.407Z,0
2016-12-29T04:55:19.382Z,0
2016-12-29T04:56:19.388Z,0
2016-12-29T04:57:19.425Z,0
2016-12-29T04:58:19.416Z,0
2016-12-29T04:59:19.382Z,0
2016-12-29T05:00:19.409Z,0
2016-12-29T05:01:19.435Z,0
2016-12-29T05:02:19.400Z,0
2016-12-29T05:03:19.408Z,0
2016-12-29T05:04:19.388Z,0
2016-12-29T05:05:19.419Z,0
2016-12-29T05:06:19.386Z,0
2016-12-29T05:07:19.380Z,0
2016-12-29T05:08:19.411Z,0
2016-12-29T05:09:19.378Z,0
2016-12-29T05:10:19.397Z,0
2016-12-29T05:11:19.372Z,0
2016-12-29T05:12:19.383Z,0
2016-12-29T05:13:19.432Z,0
2016-12-29T05:14:19.411Z,0
2016-12-29T05:15:19.418Z,0
2016-12-29T05:16:19.406Z,0
2016-12-29T05:17:19.428Z,0
2016-12-29T05:18:19.420Z,0
2016-12-29T05:19:19.441Z,0
2016-12-29T05:20:19.448Z,0
2016-12-29T05:21:19.453Z,0
2016-12-29T05:22:19.423Z,0
2016-12-29T05:23:19.424Z,0
2016-12-29T05:24:19.430Z,0
2016-12-29T05:25:19.410Z,0
2016-12-29T05:26:19.470Z,0
2016-12-29T05:27:19.396Z,0
2016-12-29T05:28:19.429Z,0
2016-12-29T05:29:19.438Z,0
2016-12-29T05:30:19.447Z,0
2016-12-29T05:31:19.454Z,0
2016-12-29T05:32:19.430Z,0
2016-12-29T05:33:19.396Z,0
2016-12-29T05:34:19.401Z,0
2016-12-29T05:35:19.438Z,0
2016-12-29T05:36:19.413Z,0
2016-12-29T05:37:19.451Z,0
2016-12-29T05:38:19.426Z,0
2016-12-29T05:39:19.416Z,0
2016-12-29T05:40:19.427Z,0
2016-12-29T05:41:19.430Z,0
2016-12-29T05:42:19.453Z,0
2016-12-29T05:43:20.196Z,0
2016-12-29T05:44:19.425Z,0
2016-12-29T05:45:19.424Z,0
2016-12-29T05:46:19.409Z,0
2016-12-29T05:47:19.420Z,0
2016-12-29T05:48:19.450Z,0
2016-12-29T05:49:19.447Z,0
2016-12-29T05:50:19.409Z,0
2016-12-29T05:51:19.423Z,0
2016-12-29T05:52:19.415Z,0
2016-12-29T05:53:19.453Z,0
2016-12-29T05:54:19.422Z,0
2016-12-29T05:55:19.412Z,0
2016-12-29T05:56:19.415Z,0
2016-12-29T05:57:19.424Z,0
2016-12-29T05:58:19.464Z,0
2016-12-29T05:59:19.422Z,0
2016-12-29T06:00:19.456Z,0
2016-12-29T06:01:19.434Z,0
2016-12-29T06:02:19.442Z,0
2016-12-29T06:03:19.458Z,0
2016-12-29T06:04:19.397Z,0
2016-12-29T06:05:19.447Z,0
2016-12-29T06:06:19.425Z,0
2016-12-29T06:07:19.429Z,0
2016-12-29T06:08:19.457Z,0
2016-12-29T06:09:19.453Z,0
2016-12-29T06:10:19.445Z,0
2016-12-29T06:11:19.475Z,0
2016-12-29T06:12:19.467Z,0
2016-12-29T06:13:19.570Z,0
2016-12-29T06:14:19.450Z,0
2016-12-29T06:15:19.433Z,0
2016-12-29T06:16:19.421Z,0
2016-12-29T06:17:19.428Z,0
2016-12-29T06:18:19.496Z,0
2016-12-29T06:19:19.431Z,0
2016-12-29T06:20:19.423Z,0
2016-12-29T06:21:19.414Z,0
2016-12-29T06:22:19.434Z,0
2016-12-29T06:23:19.490Z,0
2016-12-29T06:24:19.458Z,0
2016-12-29T06:25:19.445Z,0
2016-12-29T06:26:19.423Z,0
2016-12-29T06:27:19.429Z,0
2016-12-29T06:28:19.450Z,0
2016-12-29T06:29:19.442Z,0
2016-12-29T06:30:19.464Z,0
2016-12-29T06:31:19.445Z,0
2016-12-29T06:32:19.465Z,0
2016-12-29T06:33:19.492Z,0
2016-12-29T06:34:19.436Z,0
2016-12-29T06:35:19.459Z,0
2016-12-29T06:36:19.452Z,0
2016-12-29T06:37:19.506Z,0
2016-12-29T06:38:19.464Z,0
2016-12-29T06:39:19.442Z,0
2016-12-29T06:40:19.462Z,0
2016-12-29T06:41:19.477Z,0
2016-12-29T06:42:19.467Z,0
2016-12-29T06:43:19.473Z,0
2016-12-29T06:44:19.490Z,0
2016-12-29T06:45:19.483Z,0
2016-12-29T06:46:19.503Z,0
2016-12-29T06:47:19.526Z,0
2016-12-29T06:48:19.458Z,0
2016-12-29T06:49:19.479Z,0
2016-12-29T06:50:19.471Z,0
2016-12-29T06:51:19.501Z,0
2016-12-29T06:52:19.476Z,0
2016-12-29T06:53:19.526Z,0
2016-12-29T06:54:19.445Z,0
2016-12-29T06:55:19.486Z,0
2016-12-29T06:56:19.490Z,0
2016-12-29T06:57:19.492Z,0
2016-12-29T06:58:19.484Z,4
2016-12-29T06:59:19.473Z,4
2016-12-29T07:00:19.458Z,0
2016-12-29T07:01:19.450Z,4
2016-12-29T07:02:19.470Z,4
2016-12-29T07:03:19.477Z,0
2016-12-29T07:04:19.454Z,4
2016-12-29T07:05:19.471Z,8
2016-12-29T07:06:19.455Z,4
2016-12-29T07:07:19.455Z,4
2016-12-29T07:08:19.472Z,8
2016-12-29T07:09:19.461Z,12
2016-12-29T07:10:19.445Z,12
2016-12-29T07:11:19.483Z,16
2016-12-29T07:12:19.466Z,12
2016-12-29T07:13:19.512Z,20
2016-12-29T07:14:19.487Z,20
2016-12-29T07:15:19.476Z,20
2016-12-29T07:16:19.437Z,28
2016-12-29T07:17:19.502Z,28
2016-12-29T07:18:19.515Z,36
2016-12-29T07:19:19.465Z,40
2016-12-29T07:20:19.479Z,48
2016-12-29T07:21:19.457Z,52
2016-12-29T07:22:19.497Z,60
2016-12-29T07:23:19.501Z,68
2016-12-29T07:24:19.461Z,72
2016-12-29T07:25:19.469Z,84
2016-12-29T07:26:19.522Z,92
2016-12-29T07:27:19.551Z,104
2016-12-29T07:28:19.503Z,112
2016-12-29T07:29:19.465Z,124
2016-12-29T07:30:19.487Z,140
2016-12-29T07:31:19.480Z,156
2016-12-29T07:32:19.531Z,168
2016-12-29T07:33:19.503Z,188
2016-12-29T07:34:19.511Z,204
2016-12-29T07:35:19.479Z,220
2016-12-29T07:36:19.508Z,240
2016-12-29T07:37:19.643Z,256
2016-12-29T07:38:19.560Z,276
2016-12-29T07:39:19.518Z,296
2016-12-29T07:40:19.505Z,316
2016-12-29T07:41:19.493Z,340
2016-12-29T07:42:19.557Z,360
2016-12-29T07:43:19.590Z,384
2016-12-29T07:44:19.547Z,408
2016-12-29T07:45:19.521Z,432
2016-12-29T07:46:19.487Z,456
2016-12-29T07:47:19.568Z,480
2016-12-29T07:48:19.501Z,508
2016-12-29T07:49:19.528Z,536
2016-12-29T07:50:19.538Z,560
2016-12-29T07:51:19.561Z,588
2016-12-29T07:52:19.602Z,612
2016-12-29T07:53:19.576Z,640
2016-12-29T07:54:19.509Z,664
2016-12-29T07:55:19.475Z,696
2016-12-29T07:56:19.496Z,720
2016-12-29T07:57:19.547Z,748
2016-12-29T07:58:19.506Z,776
2016-12-29T07:59:19.500Z,804
2016-12-29T08:00:19.494Z,828
2016-12-29T08:01:19.486Z,856
2016-12-29T08:02:19.535Z,884
2016-12-29T08:03:19.485Z,908
2016-12-29T08:04:19.492Z,936
2016-12-29T08:05:19.469Z,960
2016-12-29T08:06:19.507Z,984
2016-12-29T08:07:19.528Z,1016
2016-12-29T08:08:19.518Z,1040
2016-12-29T08:09:19.497Z,1064
2016-12-29T08:10:19.548Z,1088
2016-12-29T08:11:19.506Z,1112
2016-12-29T08:12:19.532Z,1136
2016-12-29T08:13:19.593Z,1160
2016-12-29T08:14:19.545Z,1184
2016-12-29T08:15:19.506Z,1208
2016-12-29T08:16:19.544Z,1232
2016-12-29T08:17:19.572Z,1252
2016-12-29T08:18:19.593Z,1276
2016-12-29T08:19:19.574Z,1296
2016-12-29T08:20:19.578Z,1320
2016-12-29T08:21:19.565Z,1340
2016-12-29T08:22:19.558Z,1364
2016-12-29T08:23:19.560Z,1380
2016-12-29T08:24:19.537Z,1400
2016-12-29T08:25:19.533Z,1420
2016-12-29T08:26:19.501Z,1440
2016-12-29T08:27:19.521Z,1460
2016-12-29T08:28:19.528Z,1480
2016-12-29T08:29:19.559Z,1500
2016-12-29T08:30:19.509Z,1516
2016-12-29T08:31:19.499Z,1536
2016-12-29T08:32:19.521Z,1552
2016-12-29T08:33:19.514Z,1572
2016-12-29T08:34:19.520Z,1588
2016-12-29T08:35:19.513Z,1604
2016-12-29T08:36:19.505Z,1620
2016-12-29T08:37:19.524Z,1640
2016-12-29T08:38:19.532Z,1652
2016-12-29T08:39:19.518Z,1672
2016-12-29T08:40:19.530Z,1684
2016-12-29T08:41:19.538Z,1700
2016-12-29T08:42:19.516Z,1716
2016-12-29T08:43:19.523Z,1728
2016-12-29T08:44:19.501Z,1744
2016-12-29T08:45:19.523Z,1760
2016-12-29T08:46:19.529Z,1772
2016-12-29T08:47:19.510Z,1784
2016-12-29T08:48:20.019Z,1804
2016-12-29T08:49:19.492Z,1816
2016-12-29T08:50:19.539Z,1828
2016-12-29T08:51:19.492Z,1844
2016-12-29T08:52:19.499Z,1856
2016-12-29T08:53:19.535Z,1868
2016-12-29T08:54:19.514Z,1880
2016-12-29T08:55:19.535Z,1892
2016-12-29T08:56:19.510Z,1904
2016-12-29T08:57:19.547Z,1916
2016-12-29T08:58:19.552Z,1928
2016-12-29T08:59:19.525Z,1936
2016-12-29T09:00:19.507Z,1948
2016-12-29T09:01:19.533Z,1960
2016-12-29T09:02:19.507Z,1972
2016-12-29T09:03:19.802Z,1984
2016-12-29T09:04:19.530Z,1992
2016-12-29T09:05:19.500Z,2004
2016-12-29T09:06:19.536Z,2012
2016-12-29T09:07:19.601Z,2020
2016-12-29T09:08:19.565Z,2028
2016-12-29T09:09:19.524Z,2040
2016-12-29T09:10:19.537Z,2052
2016-12-29T09:11:19.514Z,2060
2016-12-29T09:12:19.526Z,2068
2016-12-29T09:13:19.561Z,2076
2016-12-29T09:14:19.558Z,2088
2016-12-29T09:15:19.574Z,2096
2016-12-29T09:16:19.547Z,2108
2016-12-29T09:17:19.530Z,2116
2016-12-29T09:18:19.552Z,2124
2016-12-29T09:19:19.528Z,2132
2016-12-29T09:20:19.534Z,2140
2016-12-29T09:21:19.557Z,2148
2016-12-29T09:22:19.577Z,2160
2016-12-29T09:23:19.558Z,2168
2016-12-29T09:24:19.579Z,2176
2016-12-29T09:25:19.570Z,2184
2016-12-29T09:26:19.545Z,2192
2016-12-29T09:27:19.564Z,2196
2016-12-29T09:28:19.607Z,2204
2016-12-29T09:29:19.569Z,2216
2016-12-29T09:30:19.533Z,2224
2016-12-29T09:31:19.551Z,2232
2016-12-29T09:32:19.619Z,2240
2016-12-29T09:33:19.567Z,2248
2016-12-29T09:34:19.545Z,2256
2016-12-29T09:35:19.550Z,2264
2016-12-29T09:36:19.543Z,2272
2016-12-29T09:37:19.537Z,2280
2016-12-29T09:38:19.556Z,2288
2016-12-29T09:39:19.520Z,2292
2016-12-29T09:40:19.527Z,2300
2016-12-29T09:41:19.549Z,2300
2016-12-29T09:42:19.556Z,2312
2016-12-29T09:43:19.564Z,2312
2016-12-29T09:44:19.657Z,2316
2016-12-29T09:45:19.609Z,2316
2016-12-29T09:46:19.573Z,2320
2016-12-29T09:47:19.567Z,2324
2016-12-29T09:48:19.584Z,2328
2016-12-29T09:49:19.548Z,2332
2016-12-29T09:50:19.571Z,2332
2016-12-29T09:51:19.606Z,2336
2016-12-29T09:52:19.554Z,2340
2016-12-29T09:53:19.559Z,2344
2016-12-29T09:54:19.569Z,2348
2016-12-29T09:55:19.660Z,2352
2016-12-29T09:56:19.607Z,2356
2016-12-29T09:57:19.600Z,2360
2016-12-29T09:58:19.567Z,2368
2016-12-29T09:59:19.574Z,2372
2016-12-29T10:00:19.552Z,2376
2016-12-29T10:01:19.537Z,2380
2016-12-29T10:02:19.559Z,2380
2016-12-29T10:03:19.570Z,2388
2016-12-29T10:04:19.559Z,2388
2016-12-29T10:05:19.578Z,2392
2016-12-29T10:06:19.556Z,2396
2016-12-29T10:07:19.580Z,2404
2016-12-29T10:08:19.609Z,2404
2016-12-29T10:09:19.578Z,2412
2016-12-29T10:10:19.586Z,2416
2016-12-29T10:11:19.571Z,2420
2016-12-29T10:12:19.604Z,2420
2016-12-29T10:13:19.610Z,2424
2016-12-29T10:14:19.586Z,2428
2016-12-29T10:15:19.555Z,2428
2016-12-29T10:16:19.565Z,2432
2016-12-29T10:17:19.569Z,2444
2016-12-29T10:18:19.589Z,2440
2016-12-29T10:19:19.567Z,2448
2016-12-29T10:20:19.556Z,2452
2016-12-29T10:21:19.553Z,2456
2016-12-29T10:22:19.598Z,2456
2016-12-29T10:23:19.565Z,2460
2016-12-29T10:24:19.579Z,2464
2016-12-29T10:25:19.576Z,2468
2016-12-29T10:26:19.600Z,2468
2016-12-29T10:27:19.571Z,2472
2016-12-29T10:28:19.605Z,2476
2016-12-29T10:29:19.570Z,2476
2016-12-29T10:30:19.584Z,2476
2016-12-29T10:31:19.585Z,2480
2016-12-29T10:32:19.574Z,2488
2016-12-29T10:33:19.611Z,2488
2016-12-29T10:34:19.628Z,2492
2016-12-29T10:35:19.591Z,2496
2016-12-29T10:36:19.589Z,2496
2016-12-29T10:37:19.581Z,2500
2016-12-29T10:38:19.933Z,2508
2016-12-29T10:39:19.595Z,2508
2016-12-29T10:40:19.630Z,2508
2016-12-29T10:41:19.622Z,2512
2016-12-29T10:42:19.599Z,2516
2016-12-29T10:43:19.631Z,2520
2016-12-29T10:44:19.621Z,2524
2016-12-29T10:45:19.591Z,2528
2016-12-29T10:46:19.664Z,2528
2016-12-29T10:47:19.622Z,2532
2016-12-29T10:48:19.660Z,2524
2016-12-29T10:49:19.763Z,2524
2016-12-29T10:50:19.672Z,2528
2016-12-29T10:51:19.663Z,2536
2016-12-29T10:52:19.727Z,2532
2016-12-29T10:53:19.685Z,2532
2016-12-29T10:54:19.645Z,2540
2016-12-29T10:55:19.614Z,2540
2016-12-29T10:56:19.605Z,2548
2016-12-29T10:57:19.667Z,2552
2016-12-29T10:58:19.896Z,2552
2016-12-29T10:59:19.745Z,2548
2016-12-29T11:00:19.711Z,2548
2016-12-29T11:01:19.718Z,2552
2016-12-29T11:02:19.670Z,2556
2016-12-29T11:03:19.619Z,2556
2016-12-29T11:04:19.610Z,2560
2016-12-29T11:05:19.597Z,2564
2016-12-29T11:06:19.762Z,2568
2016-12-29T11:07:19.664Z,2572
2016-12-29T11:08:19.816Z,2572
2016-12-29T11:09:19.643Z,2572
2016-12-29T11:10:19.592Z,2572
2016-12-29T11:11:19.599Z,2572
2016-12-29T11:12:19.619Z,2580
2016-12-29T11:13:19.673Z,2576
2016-12-29T11:14:19.625Z,2580
2016-12-29T11:15:19.598Z,2584
2016-12-29T11:16:19.716Z,2584
2016-12-29T11:17:19.634Z,2588
2016-12-29T11:18:19.624Z,2584
2016-12-29T11:19:19.619Z,2588
2016-12-29T11:20:19.677Z,2592
2016-12-29T11:21:19.629Z,2592
2016-12-29T11:22:19.633Z,2596
2016-12-29T11:23:19.659Z,2596
2016-12-29T11:24:19.772Z,2596
2016-12-29T11:25:19.644Z,2596
2016-12-29T11:26:19.652Z,2596
2016-12-29T11:27:20.493Z,2604
2016-12-29T11:28:19.667Z,2600
2016-12-29T11:29:19.958Z,2600
2016-12-29T11:30:20.070Z,2600
2016-12-29T11:31:19.928Z,2604
2016-12-29T11:32:20.223Z,2600
2016-12-29T11:33:19.635Z,2608
2016-12-29T11:34:19.677Z,2604
2016-12-29T11:35:19.665Z,2604
2016-12-29T11:36:19.639Z,2604
2016-12-29T11:37:19.667Z,2604
2016-12-29T11:38:19.684Z,2604
2016-12-29T11:39:19.631Z,2604
2016-12-29T11:40:19.640Z,2604
2016-12-29T11:41:19.673Z,2604
2016-12-29T11:42:19.658Z,2600
2016-12-29T11:43:19.674Z,2604
2016-12-29T11:44:19.697Z,2608
2016-12-29T11:45:19.645Z,2608
2016-12-29T11:46:19.683Z,2608
2016-12-29T11:47:19.685Z,2604
2016-12-29T11:48:19.686Z,2604
2016-12-29T11:49:19.660Z,2608
2016-12-29T11:50:19.673Z,2604
2016-12-29T11:51:19.658Z,2608
2016-12-29T11:52:20.654Z,2608
2016-12-29T11:53:19.673Z,2604
2016-12-29T11:54:19.645Z,2612
2016-12-29T11:55:19.636Z,2604
2016-12-29T11:56:19.679Z,2608
2016-12-29T11:57:19.681Z,2608
2016-12-29T11:58:19.687Z,2604
2016-12-29T11:59:19.667Z,2608
2016-12-29T12:00:19.677Z,2604
2016-12-29T12:01:19.668Z,2604
2016-12-29T12:02:19.663Z,2604
2016-12-29T12:03:19.685Z,2612
2016-12-29T12:04:19.660Z,2612
2016-12-29T12:05:19.713Z,2608
2016-12-29T12:06:19.716Z,2604
2016-12-29T12:07:19.687Z,2600
2016-12-29T12:08:19.649Z,2604
2016-12-29T12:09:19.642Z,2608
2016-12-29T12:10:19.649Z,2608
2016-12-29T12:11:19.649Z,2612
2016-12-29T12:12:19.640Z,2608
2016-12-29T12:13:19.713Z,2608
2016-12-29T12:14:19.640Z,2608
2016-12-29T12:15:19.656Z,2608
2016-12-29T12:16:19.655Z,2604
2016-12-29T12:17:19.648Z,2604
2016-12-29T12:18:19.681Z,2608
2016-12-29T12:19:20.127Z,2604
2016-12-29T12:20:19.653Z,2604
2016-12-29T12:21:19.657Z,2600
2016-12-29T12:22:19.677Z,2604
2016-12-29T12:23:19.681Z,2600
2016-12-29T12:24:19.670Z,2596
2016-12-29T12:25:19.679Z,2592
2016-12-29T12:26:19.651Z,2592
2016-12-29T12:27:19.657Z,2592
2016-12-29T12:28:19.685Z,2592
2016-12-29T12:29:19.676Z,2588
2016-12-29T12:30:19.646Z,2584
2016-12-29T12:31:19.698Z,2584
2016-12-29T12:32:19.694Z,2580
2016-12-29T12:33:19.782Z,2584
2016-12-29T12:34:19.700Z,2580
2016-12-29T12:35:19.818Z,2576
2016-12-29T12:36:19.786Z,2576
2016-12-29T12:37:19.696Z,2568
2016-12-29T12:38:19.665Z,2572
2016-12-29T12:39:19.695Z,2564
2016-12-29T12:40:19.698Z,2560
2016-12-29T12:41:19.951Z,2556
2016-12-29T12:42:19.712Z,2552
2016-12-29T12:43:19.712Z,2548
2016-12-29T12:44:19.676Z,2548
2016-12-29T12:45:19.903Z,2548
2016-12-29T12:46:19.771Z,2548
2016-12-29T12:47:19.676Z,2544
2016-12-29T12:48:19.709Z,2540
2016-12-29T12:49:19.700Z,2544
2016-12-29T12:50:19.796Z,2532
2016-12-29T12:51:19.690Z,2532
2016-12-29T12:52:20.316Z,2528
2016-12-29T12:53:19.979Z,2520
2016-12-29T12:54:19.725Z,2516
2016-12-29T12:55:19.715Z,2512
2016-12-29T12:56:19.693Z,2508
2016-12-29T12:57:19.973Z,2504
2016-12-29T12:58:19.699Z,2500
2016-12-29T12:59:21.710Z,2500
2016-12-29T13:00:19.949Z,2492
2016-12-29T13:01:19.675Z,2488
2016-12-29T13:02:19.684Z,2484
2016-12-29T13:03:19.706Z,2480
2016-12-29T13:04:19.701Z,2476
2016-12-29T13:05:20.050Z,2472
2016-12-29T13:06:19.711Z,2468
2016-12-29T13:07:19.664Z,2464
2016-12-29T13:08:19.680Z,2460
2016-12-29T13:09:19.843Z,2456
2016-12-29T13:10:19.718Z,2452
2016-12-29T13:11:19.915Z,2444
2016-12-29T13:12:19.672Z,2436
2016-12-29T13:13:19.719Z,2436
2016-12-29T13:14:19.723Z,2432
2016-12-29T13:15:19.694Z,2428
2016-12-29T13:16:19.669Z,2416
2016-12-29T13:17:19.676Z,2412
2016-12-29T13:18:19.701Z,2404
2016-12-29T13:19:19.719Z,2404
2016-12-29T13:20:19.715Z,2400
2016-12-29T13:21:19.705Z,2396
2016-12-29T13:22:19.725Z,2388
2016-12-29T13:23:19.725Z,2380
2016-12-29T13:24:19.722Z,2372
2016-12-29T13:25:19.676Z,2368
2016-12-29T13:26:19.712Z,2360
2016-12-29T13:27:19.688Z,2356
2016-12-29T13:28:19.710Z,2344
2016-12-29T13:29:19.695Z,2340
2016-12-29T13:30:19.694Z,2332
2016-12-29T13:31:19.705Z,2328
2016-12-29T13:32:19.724Z,2320
2016-12-29T13:33:19.716Z,2316
2016-12-29T13:34:19.738Z,2308
2016-12-29T13:35:19.745Z,2296
2016-12-29T13:36:19.709Z,2288
2016-12-29T13:37:19.759Z,2280
2016-12-29T13:38:19.725Z,2272
2016-12-29T13:39:19.712Z,2268
2016-12-29T13:40:19.715Z,2256
2016-12-29T13:41:19.719Z,2248
2016-12-29T13:42:19.694Z,2236
2016-12-29T13:43:19.756Z,2232
2016-12-29T13:44:19.708Z,2220
2016-12-29T13:45:19.728Z,2212
2016-12-29T13:46:19.707Z,2204
2016-12-29T13:47:19.704Z,2196
2016-12-29T13:48:19.763Z,2188
2016-12-29T13:49:19.711Z,2176
2016-12-29T13:50:19.710Z,2164
2016-12-29T13:51:19.724Z,2160
2016-12-29T13:52:19.745Z,2148
2016-12-29T13:53:19.750Z,2140
2016-12-29T13:54:19.731Z,2128
2016-12-29T13:55:19.724Z,2120
2016-12-29T13:56:19.801Z,2112
2016-12-29T13:57:19.768Z,2100
2016-12-29T13:58:19.729Z,2092
2016-12-29T13:59:19.791Z,2080
2016-12-29T14:00:19.814Z,2072
2016-12-29T14:01:19.720Z,2060
2016-12-29T14:02:19.741Z,2048
2016-12-29T14:03:19.720Z,2036